Komokwa — ZJL8536 — position and weather

sailwx.info

Track history (hours):
 
Tides and Currents Weather Stations Pressure Air Temp Water Temp Dewpoint Dewpoint Depression Visibility Wind Speed Wind Dir Waves Ship Positions

Komokwa

Last reported at 2015-Jul-05 12:30 UTC. Time now 2015-Jul-05 12:49 UTC.
Position N 42°26' E 018°42'.

Length 37 m; draft 2.3 m.

Type: Ship. MMSI: 378111827.

Date/timePositionNaut miles runAvg speedWind from/ knotsBaromVisibWave heightAir tempDewpointWater temp
2015-Jul-05 12:30N 42°26' E 018°42'0 0.0
2015-Jul-05 11:33N 42°26' E 018°42'0 0.0
2015-Jul-05 10:33N 42°26' E 018°42'0 0.0
2015-Jul-05 09:33N 42°26' E 018°42'0 0.0
2015-Jul-05 08:33N 42°26' E 018°42'0 0.0
2015-Jul-05 07:33N 42°26' E 018°42'0 0.0
2015-Jul-05 06:33N 42°26' E 018°42'0 0.0
2015-Jul-05 05:33N 42°26' E 018°42'0 0.0
2015-Jul-05 04:33N 42°26' E 018°42'0 0.0
2015-Jul-05 03:33N 42°26' E 018°42'0 0.0
2015-Jul-05 02:33N 42°26' E 018°42'0 0.0
2015-Jul-05 01:33N 42°26' E 018°42'0 0.0
2015-Jul-05 00:33N 42°26' E 018°42'0 0.0
2015-Jul-04 23:33N 42°26' E 018°42'0 0.0
2015-Jul-04 22:33N 42°26' E 018°42'0 0.0
2015-Jul-04 21:33N 42°26' E 018°42'0 0.0
2015-Jul-04 20:33N 42°26' E 018°42'0 0.0
2015-Jul-04 19:33N 42°26' E 018°42'0 0.0
2015-Jul-04 18:33N 42°26' E 018°42'0 0.0
2015-Jul-04 17:33N 42°26' E 018°42'0 0.0
2015-Jul-04 16:33N 42°26' E 018°42'0 0.0
2015-Jul-04 15:33N 42°26' E 018°42'0 0.0
2015-Jul-04 14:33N 42°26' E 018°42'0 0.0
2015-Jul-04 13:33N 42°26' E 018°42'0 0.0
2015-Jul-04 12:33N 42°26' E 018°42'0 0.0
2015-Jul-04 11:33N 42°26' E 018°42'0 0.0
2015-Jul-04 10:33N 42°26' E 018°42'0 0.0
2015-Jul-04 09:33N 42°26' E 018°42'0 0.0
2015-Jul-04 07:09N 42°26' E 018°42'0 0.0
2015-Jul-04 06:33N 42°26' E 018°42'0 0.0
2015-Jul-04 05:33N 42°26' E 018°42'0 0.0
2015-Jul-04 04:33N 42°26' E 018°42'0 0.0
2015-Jul-04 03:33N 42°26' E 018°42'0 0.0
2015-Jul-04 02:33N 42°26' E 018°42'0 0.0
2015-Jul-04 01:33N 42°26' E 018°42'0 0.0
2015-Jul-04 00:33N 42°26' E 018°42'0 0.0
2015-Jul-03 23:33N 42°26' E 018°42'0 0.0
2015-Jul-03 22:33N 42°26' E 018°42'0 0.0
2015-Jul-03 21:33N 42°26' E 018°42'0 0.0
2015-Jul-03 20:33N 42°26' E 018°42'0 0.0
2015-Jul-03 19:33N 42°26' E 018°42'0 0.0
2015-Jul-03 18:33N 42°26' E 018°42'0 0.0
2015-Jul-03 17:33N 42°26' E 018°42'0 0.0
2015-Jul-03 16:33N 42°26' E 018°42'2 2.4
2015-Jul-03 15:33N 42°28' E 018°41'3 3.2
2015-Jul-03 14:32N 42°29' E 018°45'0 0.0
2015-Jul-03 13:32N 42°29' E 018°45'0 0.0
2015-Jul-03 12:29N 42°29' E 018°45'0 0.0
2015-Jul-03 11:32N 42°29' E 018°45'0 0.3
2015-Jul-03 10:33N 42°29' E 018°45'3 3.4
2015-Jul-03 09:33N 42°29' E 018°40'2 1.7
2015-Jul-03 08:33N 42°28' E 018°41'2 2.0
2015-Jul-03 07:27N 42°26' E 018°41'0 0.3
2015-Jul-03 06:32N 42°26' E 018°42'0 0.0
2015-Jul-03 05:32N 42°26' E 018°42'0 0.0
2015-Jul-03 04:32N 42°26' E 018°42'0 0.0
2015-Jul-03 03:32N 42°26' E 018°42'0 0.0
2015-Jul-03 02:32N 42°26' E 018°42'0 0.0
2015-Jul-03 01:32N 42°26' E 018°42'0 0.0
2015-Jul-03 00:32N 42°26' E 018°42'0 0.0
2015-Jul-02 23:32N 42°26' E 018°42'0 0.0
2015-Jul-02 22:32N 42°26' E 018°42'0 0.0
2015-Jul-02 21:32N 42°26' E 018°42'0 0.0
2015-Jul-02 20:32N 42°26' E 018°42'0 0.0
2015-Jul-02 19:32N 42°26' E 018°42'0 0.0
2015-Jul-02 18:32N 42°26' E 018°42'0 0.0
2015-Jul-02 17:32N 42°26' E 018°42'0 0.0
2015-Jul-02 16:32N 42°26' E 018°42'0 0.0
2015-Jul-02 15:32N 42°26' E 018°42'0 0.0
2015-Jul-02 14:29N 42°26' E 018°42'0 0.0
2015-Jul-02 13:32N 42°26' E 018°42'0 0.0
2015-Jul-02 12:32N 42°26' E 018°42'0 0.0
2015-Jul-02 11:32N 42°26' E 018°42'0 0.0
2015-Jul-02 10:32N 42°26' E 018°42'0 0.0
2015-Jul-02 09:32N 42°26' E 018°42'0 0.0
2015-Jul-02 08:32N 42°26' E 018°42'0 0.0
2015-Jul-02 07:32N 42°26' E 018°42'0 0.0
2015-Jul-02 06:32N 42°26' E 018°42'0 0.0
2015-Jul-02 05:32N 42°26' E 018°42'0 0.0
2015-Jul-02 04:32N 42°26' E 018°42'0 0.0
2015-Jul-02 03:32N 42°26' E 018°42'0 0.0
2015-Jul-02 02:32N 42°26' E 018°42'0 0.0
2015-Jul-02 01:32N 42°26' E 018°42'0 0.0
2015-Jul-02 00:32N 42°26' E 018°42'0 0.0
2015-Jul-01 23:32N 42°26' E 018°42'0 0.0
2015-Jul-01 22:32N 42°26' E 018°42'0 0.0
2015-Jul-01 21:32N 42°26' E 018°42'0 0.0
2015-Jul-01 20:32N 42°26' E 018°42'0 0.0
2015-Jul-01 19:32N 42°26' E 018°42'0 0.0
2015-Jul-01 18:32N 42°26' E 018°42'0 0.0
2015-Jul-01 17:32N 42°26' E 018°42'0 0.0
2015-Jul-01 16:32N 42°26' E 018°42'0 0.0
2015-Jul-01 15:32N 42°26' E 018°42'0 0.0
2015-Jul-01 14:32N 42°26' E 018°42'0 0.0
2015-Jul-01 13:32N 42°26' E 018°42'0 0.0
2015-Jul-01 12:32N 42°26' E 018°42'0 0.0
2015-Jul-01 11:32N 42°26' E 018°42'0 0.0
2015-Jul-01 10:32N 42°26' E 018°42'0 0.0
2015-Jul-01 09:32N 42°26' E 018°42'0 0.0
2015-Jul-01 08:32N 42°26' E 018°42'0 0.0
2015-Jul-01 07:32N 42°26' E 018°42'0 0.0
2015-Jul-01 06:32N 42°26' E 018°42'0 0.0
2015-Jul-01 05:32N 42°26' E 018°42'0 0.0
2015-Jul-01 04:32N 42°26' E 018°42'0 0.2
2015-Jul-01 03:33N 42°26' E 018°41'6 5.7
2015-Jul-01 02:34N 42°26' E 018°34'8 8.0
2015-Jul-01 01:33N 42°18' E 018°33'9 8.7
2015-Jul-01 00:32N 42°09' E 018°33'285 7.3
2015-Jun-29 09:31N 37°54' E 015°45'7 7.3
2015-Jun-29 08:34N 37°58' E 015°38'8 8.3
2015-Jun-29 07:33N 38°06' E 015°36'9 8.7
2015-Jun-29 06:33N 38°15' E 015°37'8 7.7
2015-Jun-29 05:34N 38°22' E 015°37'9 9.1
2015-Jun-29 04:33N 38°31' E 015°32'9 8.7
2015-Jun-29 03:29N 38°39' E 015°27'115 8.7
2015-Jun-28 14:18N 40°23' E 014°24'6 8.7
2015-Jun-28 13:33N 40°29' E 014°20'9 8.6
2015-Jun-28 12:31N 40°37' E 014°15'8 8.2
2015-Jun-28 11:34N 40°44' E 014°10'6 6.1
2015-Jun-28 10:33N 40°50' E 014°07'0 0.0
2015-Jun-28 09:28N 40°50' E 014°07'0 0.0
2015-Jun-28 08:31N 40°50' E 014°07'0 0.0
2015-Jun-28 07:25N 40°50' E 014°07'0 0.0
2015-Jun-28 06:25N 40°50' E 014°07'0 0.0
2015-Jun-28 05:28N 40°50' E 014°07'0 0.0
2015-Jun-28 04:25N 40°50' E 014°07'0 0.0
2015-Jun-28 03:31N 40°50' E 014°07'0 0.0
2015-Jun-28 02:31N 40°50' E 014°07'0 0.0
2015-Jun-28 01:31N 40°50' E 014°07'0 0.0
2015-Jun-28 00:31N 40°50' E 014°07'0 0.0
2015-Jun-27 23:28N 40°50' E 014°07'0 0.0
2015-Jun-27 22:28N 40°50' E 014°07'0 0.0
2015-Jun-27 21:31N 40°50' E 014°07'0 0.0
2015-Jun-27 20:31N 40°50' E 014°07'0 0.0
2015-Jun-27 19:25N 40°50' E 014°07'0 0.0
2015-Jun-27 18:31N 40°50' E 014°07'0 0.0
2015-Jun-27 17:28N 40°50' E 014°07'0 0.0
2015-Jun-27 15:16N 40°50' E 014°07'0 0.0
2015-Jun-27 14:19N 40°50' E 014°07'0 0.0
2015-Jun-27 13:25N 40°50' E 014°07'1 1.3
2015-Jun-27 12:33N 40°48' E 014°07'8 8.0
2015-Jun-27 11:33N 40°41' E 014°10'7 7.1
2015-Jun-27 10:31N 40°34' E 014°13'1 1.3
2015-Jun-27 09:33N 40°33' E 014°15'0 0.0
2015-Jun-27 08:24N 40°33' E 014°15'0 0.0
2015-Jun-27 07:27N 40°33' E 014°15'0 0.0
2015-Jun-27 06:21N 40°33' E 014°15'0 0.0
2015-Jun-26 18:30N 40°33' E 014°15'0 0.0
2015-Jun-26 17:12N 40°33' E 014°15'0 0.0
2015-Jun-26 16:34N 40°33' E 014°15'0 0.0
2015-Jun-26 15:33N 40°33' E 014°15'0 0.0
2015-Jun-26 14:34N 40°33' E 014°15'0 0.0
2015-Jun-26 13:33N 40°33' E 014°15'0 0.0
2015-Jun-26 12:33N 40°33' E 014°15'0 0.0
2015-Jun-26 11:33N 40°33' E 014°15'0 0.0
2015-Jun-26 10:33N 40°33' E 014°15'0 0.0
2015-Jun-26 09:33N 40°33' E 014°15'0 0.0
2015-Jun-26 08:33N 40°33' E 014°15'0 0.0
2015-Jun-26 07:27N 40°33' E 014°15'0 0.0
2015-Jun-26 06:31N 40°33' E 014°15'0 0.0
2015-Jun-26 05:32N 40°33' E 014°15'0 0.0
2015-Jun-26 04:33N 40°33' E 014°15'0 0.0
2015-Jun-26 03:33N 40°33' E 014°15'0 0.0
2015-Jun-26 02:33N 40°33' E 014°15'0 0.0
2015-Jun-26 01:34N 40°33' E 014°15'0 0.0
2015-Jun-26 00:34N 40°33' E 014°15'0 0.0
2015-Jun-25 23:33N 40°33' E 014°15'0 0.0
2015-Jun-25 22:34N 40°33' E 014°15'0 0.0
2015-Jun-25 21:32N 40°33' E 014°15'0 0.0
2015-Jun-25 20:34N 40°33' E 014°15'0 0.0
2015-Jun-25 19:33N 40°33' E 014°15'0 0.0
2015-Jun-25 18:33N 40°33' E 014°15'0 0.0
2015-Jun-25 17:33N 40°33' E 014°15'0 0.0
2015-Jun-25 16:33N 40°33' E 014°15'0 0.0
2015-Jun-25 15:32N 40°33' E 014°15'0 0.0
2015-Jun-25 14:32N 40°33' E 014°15'0 0.0
2015-Jun-25 13:32N 40°33' E 014°15'0 0.0
2015-Jun-25 12:33N 40°33' E 014°15'  
Track history (hours):
 
Tides and Currents Weather Stations Pressure Air Temp Water Temp Dewpoint Dewpoint Depression Visibility Wind Speed Wind Dir Waves Ship Positions

Komokwa

Last reported at 2015-Jul-05 12:30 UTC. Time now 2015-Jul-05 12:49 UTC.
Position N 42°26' E 018°42'.

Length 37 m; draft 2.3 m.

Type: Ship. MMSI: 378111827.

Date/timePositionNaut miles runAvg speedWind from/ knotsBaromVisibWave heightAir tempDewpointWater temp
2015-Jul-05 12:30N 42°26' E 018°42'0 0.0
2015-Jul-05 11:33N 42°26' E 018°42'0 0.0
2015-Jul-05 10:33N 42°26' E 018°42'0 0.0
2015-Jul-05 09:33N 42°26' E 018°42'0 0.0
2015-Jul-05 08:33N 42°26' E 018°42'0 0.0
2015-Jul-05 07:33N 42°26' E 018°42'0 0.0
2015-Jul-05 06:33N 42°26' E 018°42'0 0.0
2015-Jul-05 05:33N 42°26' E 018°42'0 0.0
2015-Jul-05 04:33N 42°26' E 018°42'0 0.0
2015-Jul-05 03:33N 42°26' E 018°42'0 0.0
2015-Jul-05 02:33N 42°26' E 018°42'0 0.0
2015-Jul-05 01:33N 42°26' E 018°42'0 0.0
2015-Jul-05 00:33N 42°26' E 018°42'0 0.0
2015-Jul-04 23:33N 42°26' E 018°42'0 0.0
2015-Jul-04 22:33N 42°26' E 018°42'0 0.0
2015-Jul-04 21:33N 42°26' E 018°42'0 0.0
2015-Jul-04 20:33N 42°26' E 018°42'0 0.0
2015-Jul-04 19:33N 42°26' E 018°42'0 0.0
2015-Jul-04 18:33N 42°26' E 018°42'0 0.0
2015-Jul-04 17:33N 42°26' E 018°42'0 0.0
2015-Jul-04 16:33N 42°26' E 018°42'0 0.0
2015-Jul-04 15:33N 42°26' E 018°42'0 0.0
2015-Jul-04 14:33N 42°26' E 018°42'0 0.0
2015-Jul-04 13:33N 42°26' E 018°42'0 0.0
2015-Jul-04 12:33N 42°26' E 018°42'0 0.0
2015-Jul-04 11:33N 42°26' E 018°42'0 0.0
2015-Jul-04 10:33N 42°26' E 018°42'0 0.0
2015-Jul-04 09:33N 42°26' E 018°42'0 0.0
2015-Jul-04 07:09N 42°26' E 018°42'0 0.0
2015-Jul-04 06:33N 42°26' E 018°42'0 0.0
2015-Jul-04 05:33N 42°26' E 018°42'0 0.0
2015-Jul-04 04:33N 42°26' E 018°42'0 0.0
2015-Jul-04 03:33N 42°26' E 018°42'0 0.0
2015-Jul-04 02:33N 42°26' E 018°42'0 0.0
2015-Jul-04 01:33N 42°26' E 018°42'0 0.0
2015-Jul-04 00:33N 42°26' E 018°42'0 0.0
2015-Jul-03 23:33N 42°26' E 018°42'0 0.0
2015-Jul-03 22:33N 42°26' E 018°42'0 0.0
2015-Jul-03 21:33N 42°26' E 018°42'0 0.0
2015-Jul-03 20:33N 42°26' E 018°42'0 0.0
2015-Jul-03 19:33N 42°26' E 018°42'0 0.0
2015-Jul-03 18:33N 42°26' E 018°42'0 0.0
2015-Jul-03 17:33N 42°26' E 018°42'0 0.0
2015-Jul-03 16:33N 42°26' E 018°42'2 2.4
2015-Jul-03 15:33N 42°28' E 018°41'3 3.2
2015-Jul-03 14:32N 42°29' E 018°45'0 0.0
2015-Jul-03 13:32N 42°29' E 018°45'0 0.0
2015-Jul-03 12:29N 42°29' E 018°45'0 0.0
2015-Jul-03 11:32N 42°29' E 018°45'0 0.3
2015-Jul-03 10:33N 42°29' E 018°45'3 3.4
2015-Jul-03 09:33N 42°29' E 018°40'2 1.7
2015-Jul-03 08:33N 42°28' E 018°41'2 2.0
2015-Jul-03 07:27N 42°26' E 018°41'0 0.3
2015-Jul-03 06:32N 42°26' E 018°42'0 0.0
2015-Jul-03 05:32N 42°26' E 018°42'0 0.0
2015-Jul-03 04:32N 42°26' E 018°42'0 0.0
2015-Jul-03 03:32N 42°26' E 018°42'0 0.0
2015-Jul-03 02:32N 42°26' E 018°42'0 0.0
2015-Jul-03 01:32N 42°26' E 018°42'0 0.0
2015-Jul-03 00:32N 42°26' E 018°42'0 0.0
2015-Jul-02 23:32N 42°26' E 018°42'0 0.0
2015-Jul-02 22:32N 42°26' E 018°42'0 0.0
2015-Jul-02 21:32N 42°26' E 018°42'0 0.0
2015-Jul-02 20:32N 42°26' E 018°42'0 0.0
2015-Jul-02 19:32N 42°26' E 018°42'0 0.0
2015-Jul-02 18:32N 42°26' E 018°42'0 0.0
2015-Jul-02 17:32N 42°26' E 018°42'0 0.0
2015-Jul-02 16:32N 42°26' E 018°42'0 0.0
2015-Jul-02 15:32N 42°26' E 018°42'0 0.0
2015-Jul-02 14:29N 42°26' E 018°42'0 0.0
2015-Jul-02 13:32N 42°26' E 018°42'0 0.0
2015-Jul-02 12:32N 42°26' E 018°42'0 0.0
2015-Jul-02 11:32N 42°26' E 018°42'0 0.0
2015-Jul-02 10:32N 42°26' E 018°42'0 0.0
2015-Jul-02 09:32N 42°26' E 018°42'0 0.0
2015-Jul-02 08:32N 42°26' E 018°42'0 0.0
2015-Jul-02 07:32N 42°26' E 018°42'0 0.0
2015-Jul-02 06:32N 42°26' E 018°42'0 0.0
2015-Jul-02 05:32N 42°26' E 018°42'0 0.0
2015-Jul-02 04:32N 42°26' E 018°42'0 0.0
2015-Jul-02 03:32N 42°26' E 018°42'0 0.0
2015-Jul-02 02:32N 42°26' E 018°42'0 0.0
2015-Jul-02 01:32N 42°26' E 018°42'0 0.0
2015-Jul-02 00:32N 42°26' E 018°42'0 0.0
2015-Jul-01 23:32N 42°26' E 018°42'0 0.0
2015-Jul-01 22:32N 42°26' E 018°42'0 0.0
2015-Jul-01 21:32N 42°26' E 018°42'0 0.0
2015-Jul-01 20:32N 42°26' E 018°42'0 0.0
2015-Jul-01 19:32N 42°26' E 018°42'0 0.0
2015-Jul-01 18:32N 42°26' E 018°42'0 0.0
2015-Jul-01 17:32N 42°26' E 018°42'0 0.0
2015-Jul-01 16:32N 42°26' E 018°42'0 0.0
2015-Jul-01 15:32N 42°26' E 018°42'0 0.0
2015-Jul-01 14:32N 42°26' E 018°42'0 0.0
2015-Jul-01 13:32N 42°26' E 018°42'0 0.0
2015-Jul-01 12:32N 42°26' E 018°42'0 0.0
2015-Jul-01 11:32N 42°26' E 018°42'0 0.0
2015-Jul-01 10:32N 42°26' E 018°42'0 0.0
2015-Jul-01 09:32N 42°26' E 018°42'0 0.0
2015-Jul-01 08:32N 42°26' E 018°42'0 0.0
2015-Jul-01 07:32N 42°26' E 018°42'0 0.0
2015-Jul-01 06:32N 42°26' E 018°42'0 0.0
2015-Jul-01 05:32N 42°26' E 018°42'0 0.0
2015-Jul-01 04:32N 42°26' E 018°42'0 0.2
2015-Jul-01 03:33N 42°26' E 018°41'6 5.7
2015-Jul-01 02:34N 42°26' E 018°34'8 8.0
2015-Jul-01 01:33N 42°18' E 018°33'9 8.7
2015-Jul-01 00:32N 42°09' E 018°33'285 7.3
2015-Jun-29 09:31N 37°54' E 015°45'7 7.3
2015-Jun-29 08:34N 37°58' E 015°38'8 8.3
2015-Jun-29 07:33N 38°06' E 015°36'9 8.7
2015-Jun-29 06:33N 38°15' E 015°37'8 7.7
2015-Jun-29 05:34N 38°22' E 015°37'9 9.1
2015-Jun-29 04:33N 38°31' E 015°32'9 8.7
2015-Jun-29 03:29N 38°39' E 015°27'115 8.7
2015-Jun-28 14:18N 40°23' E 014°24'6 8.7
2015-Jun-28 13:33N 40°29' E 014°20'9 8.6
2015-Jun-28 12:31N 40°37' E 014°15'8 8.2
2015-Jun-28 11:34N 40°44' E 014°10'6 6.1
2015-Jun-28 10:33N 40°50' E 014°07'0 0.0
2015-Jun-28 09:28N 40°50' E 014°07'0 0.0
2015-Jun-28 08:31N 40°50' E 014°07'0 0.0
2015-Jun-28 07:25N 40°50' E 014°07'0 0.0
2015-Jun-28 06:25N 40°50' E 014°07'0 0.0
2015-Jun-28 05:28N 40°50' E 014°07'0 0.0
2015-Jun-28 04:25N 40°50' E 014°07'0 0.0
2015-Jun-28 03:31N 40°50' E 014°07'0 0.0
2015-Jun-28 02:31N 40°50' E 014°07'0 0.0
2015-Jun-28 01:31N 40°50' E 014°07'0 0.0
2015-Jun-28 00:31N 40°50' E 014°07'0 0.0
2015-Jun-27 23:28N 40°50' E 014°07'0 0.0
2015-Jun-27 22:28N 40°50' E 014°07'0 0.0
2015-Jun-27 21:31N 40°50' E 014°07'0 0.0
2015-Jun-27 20:31N 40°50' E 014°07'0 0.0
2015-Jun-27 19:25N 40°50' E 014°07'0 0.0
2015-Jun-27 18:31N 40°50' E 014°07'0 0.0
2015-Jun-27 17:28N 40°50' E 014°07'0 0.0
2015-Jun-27 15:16N 40°50' E 014°07'0 0.0
2015-Jun-27 14:19N 40°50' E 014°07'0 0.0
2015-Jun-27 13:25N 40°50' E 014°07'1 1.3
2015-Jun-27 12:33N 40°48' E 014°07'8 8.0
2015-Jun-27 11:33N 40°41' E 014°10'7 7.1
2015-Jun-27 10:31N 40°34' E 014°13'1 1.3
2015-Jun-27 09:33N 40°33' E 014°15'0 0.0
2015-Jun-27 08:24N 40°33' E 014°15'0 0.0
2015-Jun-27 07:27N 40°33' E 014°15'0 0.0
2015-Jun-27 06:21N 40°33' E 014°15'0 0.0
2015-Jun-26 18:30N 40°33' E 014°15'0 0.0
2015-Jun-26 17:12N 40°33' E 014°15'0 0.0
2015-Jun-26 16:34N 40°33' E 014°15'0 0.0
2015-Jun-26 15:33N 40°33' E 014°15'0 0.0
2015-Jun-26 14:34N 40°33' E 014°15'0 0.0
2015-Jun-26 13:33N 40°33' E 014°15'0 0.0
2015-Jun-26 12:33N 40°33' E 014°15'0 0.0
2015-Jun-26 11:33N 40°33' E 014°15'0 0.0
2015-Jun-26 10:33N 40°33' E 014°15'0 0.0
2015-Jun-26 09:33N 40°33' E 014°15'0 0.0
2015-Jun-26 08:33N 40°33' E 014°15'0 0.0
2015-Jun-26 07:27N 40°33' E 014°15'0 0.0
2015-Jun-26 06:31N 40°33' E 014°15'0 0.0
2015-Jun-26 05:32N 40°33' E 014°15'0 0.0
2015-Jun-26 04:33N 40°33' E 014°15'0 0.0
2015-Jun-26 03:33N 40°33' E 014°15'0 0.0
2015-Jun-26 02:33N 40°33' E 014°15'0 0.0
2015-Jun-26 01:34N 40°33' E 014°15'0 0.0
2015-Jun-26 00:34N 40°33' E 014°15'0 0.0
2015-Jun-25 23:33N 40°33' E 014°15'0 0.0
2015-Jun-25 22:34N 40°33' E 014°15'0 0.0
2015-Jun-25 21:32N 40°33' E 014°15'0 0.0
2015-Jun-25 20:34N 40°33' E 014°15'0 0.0
2015-Jun-25 19:33N 40°33' E 014°15'0 0.0
2015-Jun-25 18:33N 40°33' E 014°15'0 0.0
2015-Jun-25 17:33N 40°33' E 014°15'0 0.0
2015-Jun-25 16:33N 40°33' E 014°15'0 0.0
2015-Jun-25 15:32N 40°33' E 014°15'0 0.0
2015-Jun-25 14:32N 40°33' E 014°15'0 0.0
2015-Jun-25 13:32N 40°33' E 014°15'0 0.0
2015-Jun-25 12:33N 40°33' E 014°15'  

Dump ship's entire track history